createdAt,value
2023-07-31T00:02:59.165Z,29.18
2023-07-31T00:08:03.097Z,29.11
2023-07-31T00:13:06.814Z,29.00
2023-07-31T00:18:12.199Z,28.96
2023-07-31T00:23:15.921Z,28.95
2023-07-31T00:28:41.438Z,28.77
2023-07-31T00:33:47.789Z,28.74
2023-07-31T00:38:51.493Z,28.58
2023-07-31T00:43:55.206Z,28.53
2023-07-31T00:49:01.769Z,28.30
2023-07-31T00:54:05.758Z,28.26
2023-07-31T00:59:09.563Z,28.13
2023-07-31T01:04:15.878Z,27.84
2023-07-31T01:09:34.548Z,27.65
2023-07-31T01:14:38.277Z,27.55
2023-07-31T01:19:44.411Z,27.42
2023-07-31T01:25:01.084Z,27.42
2023-07-31T01:30:13.393Z,27.27
2023-07-31T01:35:17.645Z,27.18
2023-07-31T01:40:21.496Z,27.17
2023-07-31T01:45:26.988Z,27.00
2023-07-31T01:50:30.643Z,26.86
2023-07-31T01:55:34.438Z,26.83
2023-07-31T02:00:39.811Z,26.61
2023-07-31T02:05:47.121Z,26.56
2023-07-31T02:10:50.916Z,26.44
2023-07-31T02:15:56.400Z,26.22
2023-07-31T02:21:00.250Z,26.05
2023-07-31T02:26:04.046Z,25.92
2023-07-31T02:31:10.562Z,25.84
2023-07-31T02:36:16.708Z,25.56
2023-07-31T02:41:20.577Z,25.43
2023-07-31T02:46:26.122Z,25.30
2023-07-31T02:57:29.704Z,24.97
2023-07-31T03:02:41.295Z,24.82
2023-07-31T03:07:58.128Z,24.36
2023-07-31T03:13:15.482Z,24.11
2023-07-31T03:18:25.380Z,23.75
2023-07-31T03:23:30.641Z,23.62
2023-07-31T03:28:39.589Z,23.32
2023-07-31T03:33:47.077Z,23.18
2023-07-31T03:38:56.626Z,22.92
2023-07-31T03:44:14.381Z,22.76
2023-07-31T03:49:22.468Z,22.46
2023-07-31T03:54:31.917Z,22.32
2023-07-31T03:59:35.637Z,22.17
2023-07-31T04:04:43.435Z,22.06
2023-07-31T04:09:52.270Z,21.80
2023-07-31T04:15:05.362Z,21.91
2023-07-31T04:20:26.281Z,21.59
2023-07-31T04:25:30.032Z,21.51
2023-07-31T04:30:33.719Z,21.31
2023-07-31T04:35:39.849Z,21.25
2023-07-31T04:40:43.562Z,20.92
2023-07-31T04:45:48.370Z,21.04
2023-07-31T04:50:53.766Z,20.68
2023-07-31T04:55:57.500Z,20.54
2023-07-31T05:01:01.287Z,20.48
2023-07-31T05:06:07.625Z,20.28
2023-07-31T05:11:11.365Z,20.21
2023-07-31T05:16:15.863Z,20.09
2023-07-31T05:21:21.388Z,20.01
2023-07-31T05:26:25.303Z,19.89
2023-07-31T05:31:29.045Z,19.80
2023-07-31T05:36:34.474Z,19.63
2023-07-31T05:41:38.314Z,19.44
2023-07-31T05:46:42.444Z,19.35
2023-07-31T05:51:48.236Z,19.25
2023-07-31T05:56:51.378Z,19.10
2023-07-31T06:01:55.475Z,18.92
2023-07-31T06:07:01.650Z,18.78
2023-07-31T06:12:06.017Z,18.61
2023-07-31T06:17:09.735Z,18.54
2023-07-31T06:22:15.118Z,18.40
2023-07-31T06:27:18.826Z,18.40
2023-07-31T06:32:22.688Z,18.26
2023-07-31T06:37:28.354Z,18.14
2023-07-31T06:42:32.085Z,18.00
2023-07-31T06:47:35.877Z,17.98
2023-07-31T06:52:41.318Z,17.85
2023-07-31T06:57:45.749Z,17.80
2023-07-31T07:02:49.847Z,17.87
2023-07-31T07:07:55.270Z,17.78
2023-07-31T07:12:59.045Z,17.65
2023-07-31T07:18:02.874Z,17.52
2023-07-31T07:23:10.569Z,17.36
2023-07-31T07:28:15.720Z,17.33
2023-07-31T07:33:19.475Z,17.12
2023-07-31T07:38:24.783Z,17.10
2023-07-31T07:43:28.505Z,17.08
2023-07-31T07:48:32.237Z,16.71
2023-07-31T07:53:38.323Z,16.76
2023-07-31T07:58:43.117Z,16.79
2023-07-31T08:03:47.003Z,16.25
2023-07-31T08:08:52.448Z,16.32
2023-07-31T08:13:56.188Z,16.42
2023-07-31T08:19:00.029Z,16.45
2023-07-31T08:24:05.611Z,16.35
2023-07-31T08:29:09.353Z,16.37
2023-07-31T08:34:13.140Z,16.39
2023-07-31T08:39:18.559Z,16.32
2023-07-31T08:44:22.271Z,16.11
2023-07-31T08:49:26.577Z,16.10
2023-07-31T08:54:32.392Z,16.09
2023-07-31T08:59:37.589Z,16.17
2023-07-31T09:04:41.391Z,16.10
2023-07-31T09:09:48.383Z,15.96
2023-07-31T09:14:52.111Z,15.86
2023-07-31T09:19:55.819Z,15.82
2023-07-31T09:25:15.816Z,15.75
2023-07-31T09:30:20.114Z,15.60
2023-07-31T09:35:30.379Z,15.65
2023-07-31T09:40:37.185Z,15.57
2023-07-31T09:45:42.491Z,15.28
2023-07-31T09:50:47.397Z,15.18
2023-07-31T09:55:53.009Z,15.23
2023-07-31T10:00:57.764Z,15.23
2023-07-31T10:06:04.449Z,15.36
2023-07-31T10:11:12.022Z,15.32
2023-07-31T10:16:16.665Z,15.26
2023-07-31T10:21:20.932Z,15.15
2023-07-31T10:26:28.082Z,15.22
2023-07-31T10:31:31.981Z,15.22
2023-07-31T10:36:41.600Z,15.08
2023-07-31T10:41:48.128Z,15.06
2023-07-31T10:47:04.558Z,14.77
2023-07-31T10:52:27.787Z,14.79
2023-07-31T10:57:37.951Z,14.76
2023-07-31T11:02:44.579Z,14.39
2023-07-31T11:08:14.362Z,14.64
2023-07-31T11:13:25.015Z,14.71
2023-07-31T11:18:33.367Z,14.54
2023-07-31T11:23:41.947Z,14.54
2023-07-31T11:28:56.477Z,14.62
2023-07-31T11:34:07.509Z,14.59
2023-07-31T11:39:13.866Z,14.44
2023-07-31T11:44:29.787Z,14.33
2023-07-31T11:49:36.466Z,14.37
2023-07-31T11:54:51.762Z,14.29
2023-07-31T12:00:05.981Z,14.27
2023-07-31T12:05:16.235Z,14.32
2023-07-31T12:10:27.677Z,14.25
2023-07-31T12:15:45.690Z,14.23
2023-07-31T12:20:50.656Z,14.00
2023-07-31T12:26:06.386Z,13.89
2023-07-31T12:31:15.918Z,14.03
2023-07-31T12:36:22.124Z,14.39
2023-07-31T12:41:25.836Z,14.73
2023-07-31T12:46:33.547Z,14.43
2023-07-31T12:51:50.488Z,14.26
2023-07-31T12:56:55.004Z,14.36
2023-07-31T13:02:07.247Z,14.37
2023-07-31T13:07:15.093Z,14.27
2023-07-31T13:12:18.926Z,14.24
2023-07-31T13:17:31.900Z,13.95
2023-07-31T13:22:41.536Z,13.74
2023-07-31T13:27:46.464Z,13.55
2023-07-31T13:32:57.124Z,13.39
2023-07-31T13:38:05.807Z,13.29
2023-07-31T13:43:24.143Z,13.44
2023-07-31T13:48:39.577Z,13.48
2023-07-31T13:53:43.299Z,13.35
2023-07-31T13:58:52.683Z,13.39
2023-07-31T14:04:00.221Z,13.43
2023-07-31T14:52:03.922Z,16.29
2023-07-31T14:57:07.303Z,16.94
2023-07-31T15:02:11.915Z,17.50
2023-07-31T15:07:17.392Z,17.86
2023-07-31T15:12:21.143Z,18.66
2023-07-31T15:17:24.815Z,18.73
2023-07-31T15:22:30.437Z,19.43
2023-07-31T15:27:33.397Z,19.98
2023-07-31T15:32:39.088Z,20.23
2023-07-31T15:37:44.488Z,20.55
2023-07-31T15:42:48.263Z,21.27
2023-07-31T15:47:55.114Z,21.55
2023-07-31T15:53:00.537Z,21.99
2023-07-31T15:58:03.470Z,22.60
2023-07-31T16:03:07.286Z,23.28
2023-07-31T16:08:12.655Z,23.58
2023-07-31T16:13:15.564Z,23.60
2023-07-31T16:18:19.328Z,24.17
2023-07-31T16:23:24.827Z,24.45
2023-07-31T16:28:28.624Z,24.72
2023-07-31T16:33:32.539Z,24.80
2023-07-31T16:38:38.152Z,25.03
2023-07-31T16:43:41.868Z,25.47
2023-07-31T16:48:46.434Z,25.55
2023-07-31T16:53:51.822Z,25.79
2023-07-31T16:58:55.583Z,26.18
2023-07-31T17:03:59.649Z,26.32
2023-07-31T17:09:05.669Z,26.55
2023-07-31T17:14:09.432Z,26.58
2023-07-31T17:19:13.213Z,26.04
2023-07-31T17:24:18.655Z,26.19
2023-07-31T17:29:28.910Z,26.16
2023-07-31T17:34:33.569Z,26.41
2023-07-31T17:39:38.965Z,26.44
2023-07-31T17:44:42.807Z,26.58
2023-07-31T17:49:46.709Z,26.75
2023-07-31T17:54:52.196Z,26.13
2023-07-31T17:59:55.987Z,26.25
2023-07-31T18:04:59.761Z,26.45
2023-07-31T18:10:05.608Z,26.62
2023-07-31T18:15:10.478Z,26.27
2023-07-31T18:20:14.411Z,26.45
2023-07-31T18:25:19.875Z,26.56
2023-07-31T18:30:23.680Z,26.79
2023-07-31T18:35:27.419Z,26.61
2023-07-31T18:40:34.813Z,26.60
2023-07-31T18:45:38.549Z,26.74
2023-07-31T18:50:44.439Z,26.91
2023-07-31T18:55:50.150Z,26.82
2023-07-31T19:00:54.011Z,27.00
2023-07-31T19:06:04.102Z,26.84
2023-07-31T19:11:12.546Z,27.06
2023-07-31T19:16:18.680Z,27.14
2023-07-31T19:21:22.485Z,27.53
2023-07-31T19:26:27.891Z,27.42
2023-07-31T19:31:31.674Z,27.88
2023-07-31T19:36:35.456Z,27.95
2023-07-31T19:41:40.872Z,27.80
2023-07-31T19:46:44.627Z,27.77
2023-07-31T19:51:48.346Z,27.73
2023-07-31T19:56:55.599Z,27.53
2023-07-31T20:01:59.397Z,27.61
2023-07-31T20:07:03.566Z,27.94
2023-07-31T20:12:10.371Z,27.90
2023-07-31T20:17:14.100Z,27.97
2023-07-31T20:22:17.831Z,28.07
2023-07-31T20:27:24.395Z,28.18
2023-07-31T20:32:28.140Z,27.63
2023-07-31T20:37:32.049Z,27.33
2023-07-31T20:42:37.435Z,27.64
2023-07-31T20:47:41.217Z,28.19
2023-07-31T20:52:44.964Z,27.81
2023-07-31T20:57:50.407Z,27.66
2023-07-31T21:02:54.222Z,27.56
2023-07-31T21:07:58.081Z,27.65
2023-07-31T21:13:03.485Z,27.88
2023-07-31T21:18:07.278Z,27.89
2023-07-31T21:23:10.992Z,28.06
2023-07-31T21:28:16.649Z,28.11
2023-07-31T21:33:20.492Z,28.16
2023-07-31T21:38:24.246Z,28.08
2023-07-31T21:43:29.750Z,28.00
2023-07-31T21:48:33.458Z,28.45
2023-07-31T21:53:37.259Z,28.55
2023-07-31T21:58:42.694Z,28.69
2023-07-31T22:03:46.380Z,28.61
2023-07-31T22:08:50.109Z,28.69
2023-07-31T22:13:55.498Z,28.45
2023-07-31T22:18:59.194Z,28.63
2023-07-31T22:24:03.718Z,28.47
2023-07-31T22:29:09.130Z,28.26
2023-07-31T22:34:12.890Z,28.28
2023-07-31T22:39:16.889Z,28.21
2023-07-31T22:44:22.301Z,28.23
2023-07-31T22:49:26.133Z,28.26
2023-07-31T22:54:29.892Z,28.42
2023-07-31T22:59:35.513Z,28.31
2023-07-31T23:04:40.532Z,28.40
2023-07-31T23:09:44.233Z,28.41
2023-07-31T23:14:50.182Z,28.40
2023-07-31T23:19:53.926Z,28.36
2023-07-31T23:24:57.736Z,28.11
2023-07-31T23:30:04.238Z,28.12
2023-07-31T23:35:09.413Z,28.19
2023-07-31T23:40:14.036Z,28.27
2023-07-31T23:45:20.772Z,28.01
2023-07-31T23:50:24.720Z,27.51
2023-07-31T23:55:28.480Z,27.26
